createdAt,value
2022-10-01T00:01:16.111Z,4.40
2022-10-01T00:03:43.765Z,4.63
2022-10-01T00:06:19.273Z,5.50
2022-10-01T00:08:49.687Z,4.90
2022-10-01T00:11:23.708Z,4.90
2022-10-01T00:13:52.029Z,5.00
2022-10-01T00:16:23.580Z,4.17
2022-10-01T00:18:52.600Z,4.50
2022-10-01T00:21:26.675Z,4.10
2022-10-01T00:24:05.502Z,3.80
2022-10-01T00:26:35.573Z,2.97
2022-10-01T00:29:10.550Z,3.70
2022-10-01T00:31:37.974Z,3.50
2022-10-01T00:34:06.393Z,3.27
2022-10-01T00:36:33.891Z,3.47
2022-10-01T00:39:00.979Z,3.63
2022-10-01T00:41:32.416Z,3.63
2022-10-01T00:44:04.243Z,4.03
2022-10-01T00:46:42.320Z,5.00
2022-10-01T00:49:20.044Z,4.63
2022-10-01T00:51:55.622Z,6.00
2022-10-01T00:54:31.152Z,6.33
2022-10-01T00:56:59.751Z,6.93
2022-10-01T00:59:28.379Z,6.63
2022-10-01T01:01:55.300Z,6.30
2022-10-01T01:04:22.868Z,5.17
2022-10-01T01:07:00.382Z,5.43
2022-10-01T01:09:33.634Z,5.43
2022-10-01T01:12:39.595Z,4.80
2022-10-01T01:15:25.594Z,5.77
2022-10-01T01:18:02.407Z,5.33
2022-10-01T01:21:02.135Z,6.97
2022-10-01T01:23:47.451Z,7.47
2022-10-01T01:26:41.074Z,9.50
2022-10-01T01:29:38.237Z,10.47
2022-10-01T01:32:14.822Z,9.93
2022-10-01T01:34:45.529Z,9.73
2022-10-01T01:37:17.478Z,10.40
2022-10-01T01:39:50.294Z,11.10
2022-10-01T01:42:31.156Z,10.30
2022-10-01T01:45:01.001Z,11.60
2022-10-01T01:47:30.455Z,10.97
2022-10-01T01:49:58.945Z,9.93
2022-10-01T01:52:25.999Z,10.33
2022-10-01T01:54:54.119Z,8.77
2022-10-01T01:57:21.542Z,7.70
2022-10-01T01:59:48.558Z,7.73
2022-10-01T02:02:28.180Z,8.13
2022-10-01T02:05:03.462Z,9.37
2022-10-01T02:07:52.832Z,10.20
2022-10-01T02:10:34.601Z,10.20
2022-10-01T02:13:25.450Z,10.47
2022-10-01T02:16:14.934Z,10.47
2022-10-01T02:19:05.625Z,11.33
2022-10-01T02:22:03.108Z,13.03
2022-10-01T02:24:56.941Z,13.47
2022-10-01T02:27:31.745Z,15.20
2022-10-01T02:30:02.557Z,14.80
2022-10-01T02:32:32.189Z,13.57
2022-10-01T02:35:01.043Z,13.67
2022-10-01T02:37:33.822Z,15.77
2022-10-01T02:40:03.682Z,14.13
2022-10-01T02:42:33.182Z,15.83
2022-10-01T02:45:02.538Z,14.80
2022-10-01T02:48:02.355Z,16.13
2022-10-01T02:50:39.269Z,17.30
2022-10-01T02:53:16.937Z,17.13
2022-10-01T02:55:46.126Z,15.13
2022-10-01T02:58:12.929Z,15.37
2022-10-01T03:00:39.714Z,15.40
2022-10-01T03:03:06.496Z,16.07
2022-10-01T03:05:33.306Z,15.37
2022-10-01T03:08:00.222Z,16.17
2022-10-01T03:10:27.005Z,16.33
2022-10-01T03:12:54.058Z,17.50
2022-10-01T03:15:20.939Z,16.30
2022-10-01T03:17:54.726Z,16.47
2022-10-01T03:20:22.489Z,16.93
2022-10-01T03:22:49.476Z,17.63
2022-10-01T03:25:16.638Z,18.67
2022-10-01T03:27:44.207Z,18.83
2022-10-01T03:30:11.953Z,19.00
2022-10-01T03:32:38.786Z,18.60
2022-10-01T03:35:06.241Z,18.70
2022-10-01T03:37:33.021Z,18.60
2022-10-01T03:40:00.000Z,19.63
2022-10-01T03:42:26.790Z,18.80
2022-10-01T03:44:53.548Z,18.10
2022-10-01T03:47:22.168Z,17.33
2022-10-01T03:49:48.953Z,17.43
2022-10-01T03:52:15.741Z,17.87
2022-10-01T03:54:42.504Z,18.67
2022-10-01T03:57:09.324Z,18.60
2022-10-01T03:59:36.117Z,18.90
2022-10-01T04:02:02.970Z,18.90
2022-10-01T04:04:29.859Z,18.20
2022-10-01T04:06:56.626Z,17.33
2022-10-01T04:09:23.485Z,17.73
2022-10-01T04:11:50.540Z,17.20
2022-10-01T04:14:17.367Z,15.60
2022-10-01T04:16:44.178Z,15.43
2022-10-01T04:19:11.088Z,15.80
2022-10-01T04:21:39.035Z,15.07
2022-10-01T04:24:06.088Z,14.00
2022-10-01T04:26:32.891Z,14.20
2022-10-01T04:28:59.712Z,13.37
2022-10-01T04:31:26.842Z,13.00
2022-10-01T04:33:56.583Z,13.33
2022-10-01T04:36:25.056Z,13.20
2022-10-01T04:38:58.038Z,12.40
2022-10-01T04:41:30.337Z,12.87
2022-10-01T04:43:59.053Z,13.43
2022-10-01T04:46:26.260Z,13.23
2022-10-01T04:48:53.080Z,14.07
2022-10-01T04:51:19.877Z,12.87
2022-10-01T04:53:46.997Z,12.73
2022-10-01T04:56:13.787Z,13.20
2022-10-01T04:58:41.284Z,13.70
2022-10-01T05:01:08.131Z,11.33
2022-10-01T05:03:35.485Z,12.23
2022-10-01T05:06:02.257Z,11.43
2022-10-01T05:08:29.277Z,10.77
2022-10-01T05:10:59.006Z,11.33
2022-10-01T05:13:29.830Z,13.10
2022-10-01T05:15:56.687Z,13.40
2022-10-01T05:18:23.483Z,12.33
2022-10-01T05:20:50.269Z,13.43
2022-10-01T05:23:17.008Z,13.53
2022-10-01T05:25:46.740Z,12.97
2022-10-01T05:28:15.999Z,12.13
2022-10-01T05:30:46.753Z,12.23
2022-10-01T05:33:13.660Z,12.90
2022-10-01T05:35:41.503Z,12.57
2022-10-01T05:38:08.258Z,12.10
2022-10-01T05:40:35.045Z,11.83
2022-10-01T05:43:03.025Z,9.27
2022-10-01T05:45:31.511Z,8.93
2022-10-01T05:48:03.923Z,9.83
2022-10-01T05:50:34.179Z,9.90
2022-10-01T05:53:02.110Z,9.77
2022-10-01T05:55:34.452Z,11.27
2022-10-01T05:58:05.050Z,11.67
2022-10-01T06:00:33.765Z,11.47
2022-10-01T06:03:02.307Z,11.20
2022-10-01T06:05:31.489Z,10.73
2022-10-01T06:07:58.837Z,11.40
2022-10-01T06:10:28.085Z,11.03
2022-10-01T06:13:02.981Z,12.00
2022-10-01T06:15:31.688Z,10.90
2022-10-01T06:18:03.031Z,11.17
2022-10-01T06:20:29.932Z,12.90
2022-10-01T06:22:58.291Z,11.40
2022-10-01T06:25:29.585Z,12.37
2022-10-01T06:27:59.123Z,12.17
2022-10-01T06:30:31.630Z,11.43
2022-10-01T06:33:06.038Z,12.30
2022-10-01T06:35:34.302Z,12.83
2022-10-01T06:38:04.735Z,11.80
2022-10-01T06:40:32.144Z,12.30
2022-10-01T06:42:59.462Z,11.67
2022-10-01T06:45:27.780Z,11.80
2022-10-01T06:48:02.498Z,11.10
2022-10-01T06:50:31.057Z,10.93
2022-10-01T06:52:58.367Z,10.87
2022-10-01T06:55:32.023Z,10.50
2022-10-01T06:58:05.363Z,10.40
2022-10-01T07:00:35.785Z,9.90
2022-10-01T07:03:06.507Z,10.20
2022-10-01T07:05:33.329Z,10.20
2022-10-01T07:08:00.333Z,9.90
2022-10-01T07:10:27.202Z,10.37
2022-10-01T07:12:53.980Z,10.37
2022-10-01T07:15:22.812Z,10.00
2022-10-01T07:17:51.027Z,10.27
2022-10-01T07:20:20.115Z,9.90
2022-10-01T07:22:48.737Z,10.27
2022-10-01T07:25:16.130Z,10.00
2022-10-01T07:27:43.014Z,10.27
2022-10-01T07:30:10.491Z,9.60
2022-10-01T07:32:37.302Z,9.67
2022-10-01T07:35:05.871Z,9.57
2022-10-01T07:37:32.721Z,10.40
2022-10-01T07:40:01.984Z,9.80
2022-10-01T07:42:31.275Z,9.57
2022-10-01T07:44:58.075Z,9.43
2022-10-01T07:47:24.890Z,9.60
2022-10-01T07:49:51.702Z,8.50
2022-10-01T07:52:18.478Z,8.80
2022-10-01T07:54:45.324Z,9.53
2022-10-01T07:57:12.313Z,9.40
2022-10-01T07:59:40.879Z,9.53
2022-10-01T08:02:18.880Z,9.00
2022-10-01T08:05:06.018Z,8.30
2022-10-01T08:07:32.833Z,7.13
2022-10-01T08:09:59.638Z,7.70
2022-10-01T08:12:30.383Z,7.67
2022-10-01T08:14:57.235Z,6.10
2022-10-01T08:17:28.586Z,6.20
2022-10-01T08:19:56.285Z,5.83
2022-10-01T08:22:23.047Z,5.77
2022-10-01T08:24:49.891Z,5.27
2022-10-01T08:27:16.681Z,5.53
2022-10-01T08:29:43.510Z,4.60
2022-10-01T08:32:11.253Z,4.47
2022-10-01T08:34:38.074Z,4.70
2022-10-01T08:37:05.326Z,4.33
2022-10-01T08:39:32.193Z,4.23
2022-10-01T08:42:31.676Z,4.13
2022-10-01T08:45:02.743Z,4.13
2022-10-01T08:47:38.507Z,3.97
2022-10-01T08:50:35.972Z,3.33
2022-10-01T08:53:11.928Z,3.90
2022-10-01T08:55:41.157Z,3.63
2022-10-01T08:58:21.849Z,3.63
2022-10-01T09:00:49.664Z,3.73
2022-10-01T09:03:18.108Z,3.27
2022-10-01T09:06:16.343Z,2.93
2022-10-01T09:09:04.732Z,2.90
2022-10-01T09:11:49.946Z,2.93
2022-10-01T09:14:37.349Z,2.50
2022-10-01T09:17:48.115Z,2.77
2022-10-01T09:20:30.486Z,2.37
2022-10-01T09:23:32.463Z,2.40
2022-10-01T09:25:59.936Z,2.43
2022-10-01T09:28:33.562Z,2.37
2022-10-01T09:31:20.049Z,2.10
2022-10-01T09:34:16.976Z,2.23
2022-10-01T09:37:05.499Z,2.10
2022-10-01T09:39:40.315Z,2.20
2022-10-01T09:42:07.506Z,1.63
2022-10-01T09:44:34.901Z,1.80
2022-10-01T09:47:01.680Z,1.60
2022-10-01T09:49:39.493Z,1.73
2022-10-01T09:52:16.061Z,1.70
2022-10-01T09:55:38.225Z,1.70
2022-10-01T09:58:18.689Z,1.90
2022-10-01T10:00:45.715Z,1.60
2022-10-01T10:03:29.869Z,1.73
2022-10-01T10:06:00.213Z,1.63
2022-10-01T10:08:34.892Z,1.80
2022-10-01T10:11:10.869Z,1.83
2022-10-01T10:13:41.623Z,1.53
2022-10-01T10:16:35.934Z,1.90
2022-10-01T10:19:27.547Z,1.80
2022-10-01T10:22:00.605Z,1.70
2022-10-01T10:24:35.092Z,1.80
2022-10-01T10:27:06.783Z,2.00
2022-10-01T10:29:37.021Z,2.03
2022-10-01T10:32:25.414Z,2.00
2022-10-01T10:35:02.858Z,2.03
2022-10-01T10:37:38.014Z,2.23
2022-10-01T10:40:10.434Z,2.50
2022-10-01T10:42:38.814Z,2.07
2022-10-01T10:45:20.004Z,2.10
2022-10-01T10:47:51.085Z,2.07
2022-10-01T10:50:39.754Z,2.30
2022-10-01T10:53:22.299Z,2.20
2022-10-01T10:55:57.273Z,2.30
2022-10-01T10:58:30.251Z,2.10
2022-10-01T11:01:02.553Z,2.47
2022-10-01T11:03:32.451Z,2.27
2022-10-01T11:06:11.273Z,2.47
2022-10-01T11:08:39.468Z,2.50
2022-10-01T11:11:23.127Z,2.50
2022-10-01T11:14:04.931Z,2.93
2022-10-01T11:17:00.387Z,3.00
2022-10-01T11:19:59.943Z,2.73
2022-10-01T11:22:40.281Z,3.10
2022-10-01T11:25:31.114Z,3.00
2022-10-01T11:28:33.281Z,2.93
2022-10-01T11:31:37.545Z,3.00
2022-10-01T11:34:14.718Z,3.40
2022-10-01T11:37:07.986Z,3.20
2022-10-01T11:39:38.587Z,2.60
2022-10-01T11:42:17.303Z,3.00
2022-10-01T11:44:57.415Z,3.80
2022-10-01T11:47:36.313Z,4.17
2022-10-01T11:50:25.197Z,3.63
2022-10-01T11:53:21.087Z,3.10
2022-10-01T11:56:17.257Z,3.80
2022-10-01T11:58:54.217Z,3.20
2022-10-01T12:01:23.725Z,4.00
2022-10-01T12:03:53.162Z,4.83
2022-10-01T12:06:47.565Z,4.20
2022-10-01T12:09:23.161Z,3.50
2022-10-01T12:12:07.583Z,4.77
2022-10-01T12:14:49.414Z,4.50
2022-10-01T12:17:36.169Z,5.40
2022-10-01T12:20:13.152Z,4.20
2022-10-01T12:22:42.196Z,5.07
2022-10-01T12:25:13.452Z,4.80
2022-10-01T12:27:53.411Z,5.37
2022-10-01T12:30:34.334Z,4.70
2022-10-01T12:33:13.068Z,5.27
2022-10-01T12:36:03.291Z,7.33
2022-10-01T12:38:44.438Z,4.23
2022-10-01T12:42:03.822Z,6.03
2022-10-01T12:44:59.826Z,5.90
2022-10-01T12:47:55.447Z,6.87
2022-10-01T12:51:12.634Z,4.83
2022-10-01T12:54:00.408Z,3.97
2022-10-01T12:56:40.381Z,5.30
2022-10-01T12:59:18.865Z,10.30
2022-10-01T13:01:54.113Z,4.80
2022-10-01T13:04:51.381Z,5.93
2022-10-01T13:07:40.329Z,2.77
2022-10-01T13:10:27.658Z,2.90
2022-10-01T13:13:11.748Z,3.87
2022-10-01T13:15:42.115Z,3.27
2022-10-01T13:18:44.537Z,2.73
2022-10-01T13:21:21.129Z,2.27
2022-10-01T13:24:05.444Z,2.17
2022-10-01T13:26:39.734Z,2.00
2022-10-01T13:29:45.076Z,1.90
2022-10-01T13:32:50.768Z,2.20
2022-10-01T13:35:36.697Z,1.90
2022-10-01T13:38:40.516Z,1.97
2022-10-01T13:41:22.089Z,1.83
2022-10-01T13:44:01.627Z,1.80
2022-10-01T13:46:33.063Z,1.60
2022-10-01T13:49:17.070Z,1.77
2022-10-01T13:51:45.935Z,1.63
2022-10-01T13:54:48.600Z,1.50
2022-10-01T13:57:38.520Z,1.57
2022-10-01T14:00:17.523Z,1.40
2022-10-01T14:03:17.758Z,1.37
2022-10-01T14:05:44.964Z,1.43
2022-10-01T14:08:25.192Z,1.60
2022-10-01T14:11:16.758Z,1.40
2022-10-01T14:14:06.833Z,1.43
2022-10-01T14:16:45.961Z,1.73
2022-10-01T14:19:25.783Z,1.67
2022-10-01T14:22:10.463Z,1.60
2022-10-01T14:24:58.346Z,1.83
2022-10-01T14:27:41.940Z,1.50
2022-10-01T14:30:24.650Z,1.50
2022-10-01T14:33:16.642Z,1.53
2022-10-01T14:36:02.391Z,1.70
2022-10-01T14:38:29.350Z,1.47
2022-10-01T14:40:56.139Z,1.93
2022-10-01T14:43:30.870Z,1.43
2022-10-01T14:46:05.797Z,1.60
2022-10-01T14:48:35.732Z,1.80
2022-10-01T14:51:06.431Z,1.43
2022-10-01T14:53:38.397Z,1.50
2022-10-01T14:56:12.867Z,1.97
2022-10-01T14:58:47.328Z,1.50
2022-10-01T15:01:19.526Z,1.80
2022-10-01T15:03:47.896Z,1.50
2022-10-01T15:06:19.149Z,1.57
2022-10-01T15:08:49.449Z,1.57
2022-10-01T15:11:25.192Z,1.53
2022-10-01T15:13:55.828Z,1.30
2022-10-01T15:16:27.879Z,1.30
2022-10-01T15:19:03.857Z,1.43
2022-10-01T15:21:48.484Z,1.63
2022-10-01T15:24:44.164Z,1.37
2022-10-01T15:27:18.167Z,1.57
2022-10-01T15:29:45.824Z,1.40
2022-10-01T15:32:18.912Z,1.40
2022-10-01T15:34:54.987Z,1.63
2022-10-01T15:37:35.185Z,1.47
2022-10-01T15:40:05.553Z,1.60
2022-10-01T15:42:34.858Z,1.60
2022-10-01T15:45:07.654Z,1.73
2022-10-01T15:47:52.214Z,1.60
2022-10-01T15:50:29.881Z,1.40
2022-10-01T15:53:21.503Z,1.70
2022-10-01T15:55:56.912Z,1.83
2022-10-01T15:58:32.243Z,1.33
2022-10-01T16:01:12.347Z,1.50
2022-10-01T16:03:47.428Z,1.87
2022-10-01T16:06:39.815Z,1.60
2022-10-01T16:09:23.821Z,1.43
2022-10-01T16:12:06.704Z,1.20
2022-10-01T16:14:43.673Z,1.70
2022-10-01T16:17:20.064Z,1.33
2022-10-01T16:19:52.172Z,1.53
2022-10-01T16:22:35.320Z,1.40
2022-10-01T16:25:31.212Z,1.43
2022-10-01T16:28:05.874Z,1.60
2022-10-01T16:30:34.074Z,1.27
2022-10-01T16:33:04.639Z,1.47
2022-10-01T16:35:35.674Z,1.50
2022-10-01T16:38:08.215Z,1.80
2022-10-01T16:40:41.637Z,1.70
2022-10-01T16:43:18.698Z,1.63
2022-10-01T16:45:45.938Z,1.60
2022-10-01T16:48:19.562Z,1.70
2022-10-01T16:50:47.283Z,1.60
2022-10-01T16:53:18.158Z,1.50
2022-10-01T16:55:45.914Z,1.43
2022-10-01T16:58:12.962Z,1.50
2022-10-01T17:00:39.971Z,1.60
2022-10-01T17:03:12.133Z,1.33
2022-10-01T17:05:39.175Z,1.50
2022-10-01T17:08:11.286Z,1.40
2022-10-01T17:11:01.148Z,1.60
2022-10-01T17:13:32.694Z,1.30
2022-10-01T17:16:01.043Z,1.60
2022-10-01T17:18:28.349Z,1.30
2022-10-01T17:20:56.164Z,1.40
2022-10-01T17:23:23.492Z,1.50
2022-10-01T17:25:50.644Z,1.47
2022-10-01T17:28:20.164Z,1.20
2022-10-01T17:30:48.606Z,1.60
2022-10-01T17:33:20.844Z,1.33
2022-10-01T17:35:51.765Z,1.10
2022-10-01T17:38:19.418Z,1.30
2022-10-01T17:40:47.419Z,1.10
2022-10-01T17:43:16.206Z,1.23
2022-10-01T17:45:47.369Z,1.20
2022-10-01T17:48:15.521Z,1.10
2022-10-01T17:50:44.997Z,0.90
2022-10-01T17:53:12.841Z,0.90
2022-10-01T17:55:44.633Z,1.00
2022-10-01T17:58:11.963Z,0.90
2022-10-01T18:00:41.149Z,0.87
2022-10-01T18:03:08.009Z,0.90
2022-10-01T18:05:34.946Z,1.00
2022-10-01T18:08:01.921Z,1.10
2022-10-01T18:10:28.706Z,0.93
2022-10-01T18:12:57.393Z,0.90
2022-10-01T18:15:24.311Z,0.90
2022-10-01T18:18:48.493Z,0.90
2022-10-01T18:20:40.952Z,0.90
2022-10-01T18:23:08.118Z,0.93
2022-10-01T18:25:34.929Z,1.00
2022-10-01T18:28:02.068Z,1.00
2022-10-01T18:30:28.889Z,0.90
2022-10-01T18:32:57.359Z,1.13
2022-10-01T18:35:35.089Z,1.10
2022-10-01T18:38:28.414Z,0.87
2022-10-01T18:41:02.858Z,1.10
2022-10-01T18:43:34.736Z,1.00
2022-10-01T18:46:28.873Z,1.00
2022-10-01T18:49:21.748Z,0.80
2022-10-01T18:52:13.108Z,1.00
2022-10-01T18:55:25.215Z,1.00
2022-10-01T18:58:59.271Z,0.90
2022-10-01T19:01:49.024Z,1.10
2022-10-01T19:04:33.598Z,1.23
2022-10-01T19:07:29.333Z,1.07
2022-10-01T19:10:12.313Z,1.10
2022-10-01T19:13:17.142Z,1.10
2022-10-01T19:16:13.078Z,0.90
2022-10-01T19:18:58.345Z,1.03
2022-10-01T19:21:52.729Z,1.20
2022-10-01T19:25:01.067Z,1.00
2022-10-01T19:27:46.365Z,1.20
2022-10-01T19:30:16.427Z,1.00
2022-10-01T19:33:00.176Z,0.90
2022-10-01T19:35:38.295Z,1.07
2022-10-01T19:38:22.272Z,1.00
2022-10-01T19:40:56.305Z,1.20
2022-10-01T19:43:48.239Z,1.10
2022-10-01T19:46:40.335Z,1.03
2022-10-01T19:49:27.411Z,1.10
2022-10-01T19:52:01.565Z,1.17
2022-10-01T19:54:38.812Z,1.00
2022-10-01T19:57:20.693Z,1.10
2022-10-01T19:59:47.911Z,1.20
2022-10-01T20:02:31.449Z,1.20
2022-10-01T20:05:11.325Z,1.10
2022-10-01T20:07:58.640Z,1.20
2022-10-01T20:10:37.099Z,1.27
2022-10-01T20:13:31.420Z,1.20
2022-10-01T20:16:36.202Z,1.20
2022-10-01T20:19:19.749Z,0.90
2022-10-01T20:22:11.710Z,0.97
2022-10-01T20:24:54.059Z,1.17
2022-10-01T20:27:40.611Z,1.20
2022-10-01T20:30:20.020Z,0.80
2022-10-01T20:33:07.129Z,0.97
2022-10-01T20:36:03.921Z,1.00
2022-10-01T20:38:43.654Z,1.00
2022-10-01T20:41:16.932Z,1.00
2022-10-01T20:43:51.397Z,1.07
2022-10-01T20:46:36.328Z,1.00
2022-10-01T20:49:13.905Z,1.00
2022-10-01T20:51:58.577Z,0.90
2022-10-01T20:54:39.113Z,0.80
2022-10-01T20:57:32.721Z,1.00
2022-10-01T21:00:23.146Z,1.10
2022-10-01T21:03:20.070Z,1.00
2022-10-01T21:06:01.168Z,0.93
2022-10-01T21:08:47.457Z,1.20
2022-10-01T21:11:53.018Z,1.23
2022-10-01T21:14:34.326Z,0.87
2022-10-01T21:17:33.934Z,0.93
2022-10-01T21:20:20.998Z,0.80
2022-10-01T21:22:56.682Z,0.90
2022-10-01T21:25:54.072Z,0.73
2022-10-01T21:29:06.551Z,0.80
2022-10-01T21:31:44.703Z,0.80
2022-10-01T21:34:42.420Z,0.90
2022-10-01T21:37:23.374Z,0.70
2022-10-01T21:40:18.194Z,0.70
2022-10-01T21:43:09.554Z,1.00
2022-10-01T21:45:47.676Z,0.70
2022-10-01T21:48:17.165Z,0.70
2022-10-01T21:50:57.016Z,1.27
2022-10-01T21:53:46.091Z,0.77
2022-10-01T21:56:37.323Z,0.90
2022-10-01T21:59:41.745Z,0.80
2022-10-01T22:02:40.777Z,0.90
2022-10-01T22:05:24.821Z,0.90
2022-10-01T22:08:26.820Z,0.77
2022-10-01T22:11:00.740Z,0.97
2022-10-01T22:13:33.093Z,0.70
2022-10-01T22:16:14.328Z,0.70
2022-10-01T22:18:57.542Z,0.83
2022-10-01T22:21:25.902Z,1.00
2022-10-01T22:24:04.806Z,1.10
2022-10-01T22:26:34.687Z,1.17
2022-10-01T22:29:07.351Z,1.50
2022-10-01T22:31:36.627Z,1.30
2022-10-01T22:34:12.996Z,1.50
2022-10-01T22:36:49.033Z,1.20
2022-10-01T22:39:23.577Z,1.60
2022-10-01T22:41:58.510Z,1.30
2022-10-01T22:44:28.237Z,1.30
2022-10-01T22:47:40.990Z,1.43
2022-10-01T22:50:19.947Z,1.20
2022-10-01T22:53:11.649Z,1.20
2022-10-01T22:55:53.036Z,0.90
2022-10-01T22:58:34.888Z,0.93
2022-10-01T23:01:31.598Z,0.80
2022-10-01T23:04:22.448Z,0.80
2022-10-01T23:07:02.940Z,0.70
2022-10-01T23:10:01.234Z,0.63
2022-10-01T23:13:15.243Z,0.80
2022-10-01T23:16:16.192Z,0.60
2022-10-01T23:18:52.993Z,0.77
2022-10-01T23:21:37.822Z,0.70
2022-10-01T23:24:43.534Z,0.70
2022-10-01T23:27:46.204Z,0.77
2022-10-01T23:30:16.819Z,0.60
2022-10-01T23:33:41.621Z,0.80
2022-10-01T23:36:49.842Z,0.70
2022-10-01T23:39:44.382Z,0.80
2022-10-01T23:43:07.605Z,0.70
2022-10-01T23:45:47.851Z,0.60
2022-10-01T23:48:50.319Z,0.80
2022-10-01T23:51:32.067Z,0.60
2022-10-01T23:54:36.441Z,0.70
2022-10-01T23:57:21.572Z,0.90
